createdAt,value
2018-07-17T00:00:00.741Z,3.10
2018-07-17T00:01:00.700Z,3.10
2018-07-17T00:02:00.715Z,3.30
2018-07-17T00:03:00.726Z,3.40
2018-07-17T00:04:00.743Z,3.10
2018-07-17T00:05:00.766Z,3.20
2018-07-17T00:06:00.827Z,3.30
2018-07-17T00:07:00.797Z,3.30
2018-07-17T00:08:00.813Z,3.30
2018-07-17T00:09:00.854Z,3.30
2018-07-17T00:10:00.843Z,3.30
2018-07-17T00:11:00.859Z,3.30
2018-07-17T00:12:00.932Z,3.00
2018-07-17T00:13:00.897Z,3.10
2018-07-17T00:14:00.912Z,3.20
2018-07-17T00:15:00.928Z,3.00
2018-07-17T00:16:00.940Z,3.20
2018-07-17T00:17:00.962Z,2.90
2018-07-17T00:18:01.030Z,3.20
2018-07-17T00:19:00.995Z,2.90
2018-07-17T00:20:01.007Z,3.00
2018-07-17T00:21:01.027Z,3.20
2018-07-17T00:22:01.040Z,2.90
2018-07-17T00:23:01.061Z,3.00
2018-07-17T00:24:01.128Z,3.10
2018-07-17T00:25:01.095Z,3.20
2018-07-17T00:26:01.111Z,3.20
2018-07-17T00:27:01.122Z,2.90
2018-07-17T00:28:01.144Z,3.00
2018-07-17T00:29:01.160Z,2.90
2018-07-17T00:30:01.175Z,2.80
2018-07-17T00:31:01.191Z,3.00
2018-07-17T00:32:01.206Z,2.90
2018-07-17T00:33:01.225Z,2.90
2018-07-17T00:34:01.247Z,3.00
2018-07-17T00:35:01.254Z,2.80
2018-07-17T00:36:01.326Z,2.80
2018-07-17T00:37:01.288Z,2.90
2018-07-17T00:38:01.308Z,2.90
2018-07-17T00:39:01.320Z,2.70
2018-07-17T00:40:01.342Z,2.90
2018-07-17T00:41:01.357Z,2.90
2018-07-17T00:42:01.422Z,2.60
2018-07-17T00:43:01.389Z,2.60
2018-07-17T00:44:01.410Z,2.50
2018-07-17T00:45:01.441Z,2.80
2018-07-17T00:46:01.436Z,2.80
2018-07-17T00:47:01.451Z,2.60
2018-07-17T00:48:01.571Z,2.60
2018-07-17T00:49:01.490Z,2.60
2018-07-17T00:50:01.503Z,2.60
2018-07-17T00:51:01.521Z,2.80
2018-07-17T00:52:01.540Z,2.30
2018-07-17T00:53:01.556Z,2.80
2018-07-17T00:54:01.576Z,2.40
2018-07-17T00:55:01.582Z,2.40
2018-07-17T00:56:01.604Z,2.50
2018-07-17T00:57:01.618Z,2.40
2018-07-17T00:58:01.638Z,2.20
2018-07-17T00:59:01.655Z,2.50
2018-07-17T01:00:01.669Z,2.40
2018-07-17T01:01:01.747Z,2.40
2018-07-17T01:02:01.701Z,2.60
2018-07-17T01:03:01.720Z,2.30
2018-07-17T01:04:01.737Z,2.40
2018-07-17T01:05:01.754Z,2.70
2018-07-17T01:06:01.767Z,2.10
2018-07-17T01:07:01.824Z,2.30
2018-07-17T01:08:01.799Z,2.30
2018-07-17T01:09:01.815Z,2.30
2018-07-17T01:10:01.837Z,2.30
2018-07-17T01:11:01.847Z,2.10
2018-07-17T01:12:01.920Z,2.30
2018-07-17T01:13:01.880Z,2.30
2018-07-17T01:14:01.898Z,2.50
2018-07-17T01:15:01.918Z,2.30
2018-07-17T01:16:01.938Z,2.20
2018-07-17T01:17:01.952Z,2.30
2018-07-17T01:18:02.015Z,2.20
2018-07-17T01:19:01.985Z,2.00
2018-07-17T01:20:02.072Z,2.20
2018-07-17T01:21:02.014Z,2.20
2018-07-17T01:22:02.034Z,2.20
2018-07-17T01:23:02.047Z,2.30
2018-07-17T01:24:02.172Z,2.30
2018-07-17T01:25:02.080Z,2.30
2018-07-17T01:26:02.109Z,2.30
2018-07-17T01:27:02.118Z,2.20
2018-07-17T01:28:02.130Z,2.20
2018-07-17T01:29:02.144Z,2.70
2018-07-17T01:30:02.217Z,2.60
2018-07-17T01:31:02.179Z,2.40
2018-07-17T01:32:02.220Z,2.40
2018-07-17T01:33:02.215Z,2.30
2018-07-17T01:34:02.229Z,2.40
2018-07-17T01:35:02.246Z,2.40
2018-07-17T01:36:02.263Z,2.50
2018-07-17T01:37:02.277Z,2.40
2018-07-17T01:38:02.291Z,2.80
2018-07-17T01:39:02.305Z,2.70
2018-07-17T01:40:02.329Z,2.50
2018-07-17T01:41:02.340Z,2.60
2018-07-17T01:42:02.356Z,2.40
2018-07-17T01:43:02.383Z,2.50
2018-07-17T01:44:02.389Z,2.40
2018-07-17T01:45:02.471Z,2.40
2018-07-17T01:46:02.421Z,2.40
2018-07-17T01:47:02.450Z,2.60
2018-07-17T01:48:02.506Z,2.60
2018-07-17T01:49:02.473Z,2.50
2018-07-17T01:50:02.491Z,2.60
2018-07-17T01:51:02.582Z,2.50
2018-07-17T01:52:02.520Z,2.60
2018-07-17T01:53:02.539Z,2.50
2018-07-17T01:54:02.603Z,2.40
2018-07-17T01:55:02.573Z,2.60
2018-07-17T01:56:02.584Z,2.40
2018-07-17T01:57:02.605Z,2.60
2018-07-17T01:58:02.621Z,2.70
2018-07-17T01:59:02.638Z,2.30
2018-07-17T02:00:02.656Z,2.70
2018-07-17T02:01:02.669Z,2.60
2018-07-17T02:02:02.682Z,2.40
2018-07-17T02:03:02.703Z,2.40
2018-07-17T02:04:02.718Z,2.60
2018-07-17T02:05:02.745Z,2.80
2018-07-17T02:06:02.809Z,2.40
2018-07-17T02:07:02.769Z,2.80
2018-07-17T02:08:02.779Z,2.70
2018-07-17T02:09:02.802Z,2.40
2018-07-17T02:10:02.817Z,2.60
2018-07-17T02:11:02.834Z,2.60
2018-07-17T02:12:02.846Z,2.60
2018-07-17T02:13:02.862Z,2.70
2018-07-17T02:14:02.880Z,2.60
2018-07-17T02:15:02.894Z,2.80
2018-07-17T02:16:02.911Z,2.90
2018-07-17T02:17:02.926Z,2.60
2018-07-17T02:18:02.999Z,2.30
2018-07-17T02:19:02.965Z,2.40
2018-07-17T02:20:03.010Z,2.40
2018-07-17T02:21:02.996Z,2.50
2018-07-17T02:22:03.016Z,2.50
2018-07-17T02:23:03.029Z,2.50
2018-07-17T02:24:03.045Z,2.40
2018-07-17T02:25:03.060Z,2.50
2018-07-17T02:26:03.165Z,2.50
2018-07-17T02:27:03.153Z,2.80
2018-07-17T02:28:03.114Z,2.50
2018-07-17T02:29:03.127Z,2.70
2018-07-17T02:30:03.152Z,2.60
2018-07-17T02:31:03.163Z,2.80
2018-07-17T02:32:03.261Z,2.70
2018-07-17T02:33:03.196Z,2.70
2018-07-17T02:34:03.208Z,3.00
2018-07-17T02:35:03.228Z,2.80
2018-07-17T02:36:03.241Z,3.10
2018-07-17T02:37:03.257Z,3.00
2018-07-17T02:38:03.273Z,2.90
2018-07-17T02:39:03.293Z,2.80
2018-07-17T02:40:03.305Z,3.00
2018-07-17T02:41:03.323Z,2.80
2018-07-17T02:42:03.347Z,2.60
2018-07-17T02:43:03.360Z,2.60
2018-07-17T02:44:03.376Z,2.90
2018-07-17T02:45:03.393Z,2.80
2018-07-17T02:46:03.409Z,2.80
2018-07-17T02:47:03.476Z,2.80
2018-07-17T02:48:03.441Z,3.10
2018-07-17T02:49:03.464Z,2.80
2018-07-17T02:50:03.477Z,2.50
2018-07-17T02:51:03.486Z,2.70
2018-07-17T02:52:03.506Z,2.70
2018-07-17T02:53:03.530Z,2.90
2018-07-17T02:54:03.544Z,2.80
2018-07-17T02:55:03.551Z,2.60
2018-07-17T02:56:03.571Z,2.70
2018-07-17T02:57:03.590Z,2.90
2018-07-17T02:58:03.600Z,2.60
2018-07-17T02:59:03.666Z,2.70
2018-07-17T03:00:03.637Z,2.60
2018-07-17T03:01:03.648Z,2.80
2018-07-17T03:02:03.669Z,2.80
2018-07-17T03:03:03.685Z,2.70
2018-07-17T03:04:03.700Z,2.70
2018-07-17T03:05:03.823Z,2.70
2018-07-17T03:06:03.735Z,2.70
2018-07-17T03:07:03.817Z,2.70
2018-07-17T03:08:03.775Z,2.80
2018-07-17T03:09:03.784Z,2.70
2018-07-17T03:10:03.802Z,2.70
2018-07-17T03:11:03.811Z,2.70
2018-07-17T03:12:03.829Z,2.50
2018-07-17T03:13:03.852Z,2.60
2018-07-17T03:14:03.862Z,2.60
2018-07-17T03:15:03.879Z,2.50
2018-07-17T03:16:03.893Z,2.60
2018-07-17T03:17:03.965Z,2.50
2018-07-17T03:18:03.933Z,2.60
2018-07-17T03:19:03.945Z,2.50
2018-07-17T03:20:03.965Z,2.80
2018-07-17T03:21:03.982Z,2.50
2018-07-17T03:22:03.998Z,2.40
2018-07-17T03:23:04.013Z,2.60
2018-07-17T03:24:04.027Z,2.50
2018-07-17T03:25:04.045Z,2.30
2018-07-17T03:26:04.065Z,2.40
2018-07-17T03:27:04.080Z,2.40
2018-07-17T03:28:04.094Z,2.60
2018-07-17T03:29:04.159Z,2.20
2018-07-17T03:30:04.135Z,2.40
2018-07-17T03:31:04.145Z,2.50
2018-07-17T03:32:04.206Z,2.40
2018-07-17T03:33:04.180Z,2.40
2018-07-17T03:34:04.196Z,2.10
2018-07-17T03:35:04.207Z,2.50
2018-07-17T03:36:04.227Z,2.60
2018-07-17T03:37:04.238Z,2.20
2018-07-17T03:38:04.296Z,2.40
2018-07-17T03:39:04.272Z,2.50
2018-07-17T03:40:04.295Z,2.20
2018-07-17T03:41:04.306Z,2.40
2018-07-17T03:42:04.322Z,2.40
2018-07-17T03:43:04.339Z,2.30
2018-07-17T03:44:04.401Z,2.40
2018-07-17T03:45:04.376Z,2.40
2018-07-17T03:46:04.388Z,2.40
2018-07-17T03:47:04.456Z,2.20
2018-07-17T03:48:04.424Z,2.40
2018-07-17T03:49:04.437Z,2.30
2018-07-17T03:50:04.475Z,2.40
2018-07-17T03:51:04.473Z,2.40
2018-07-17T03:52:04.536Z,2.10
2018-07-17T03:53:04.507Z,2.40
2018-07-17T03:54:04.520Z,2.40
2018-07-17T03:55:04.540Z,2.30
2018-07-17T03:56:04.556Z,2.40
2018-07-17T03:57:04.569Z,2.40
2018-07-17T03:58:04.641Z,2.30
2018-07-17T03:59:04.605Z,2.40
2018-07-17T04:00:04.623Z,2.60
2018-07-17T04:01:04.635Z,2.50
2018-07-17T04:02:04.714Z,2.40
2018-07-17T04:03:04.667Z,2.40
2018-07-17T04:04:04.685Z,2.70
2018-07-17T04:05:04.707Z,2.50
2018-07-17T04:06:04.721Z,2.40
2018-07-17T04:07:04.737Z,2.70
2018-07-17T04:08:04.794Z,2.60
2018-07-17T04:09:04.765Z,2.40
2018-07-17T04:10:04.786Z,2.50
2018-07-17T04:11:04.805Z,2.40
2018-07-17T04:12:04.813Z,2.40
2018-07-17T04:13:04.834Z,2.60
2018-07-17T04:14:04.884Z,2.30
2018-07-17T04:15:04.870Z,2.50
2018-07-17T04:16:04.885Z,2.50
2018-07-17T04:17:04.895Z,2.40
2018-07-17T04:18:04.916Z,2.40
2018-07-17T04:19:04.927Z,2.40
2018-07-17T04:20:04.948Z,2.50
2018-07-17T04:21:04.962Z,2.40
2018-07-17T04:22:04.977Z,2.30
2018-07-17T04:23:04.998Z,2.60
2018-07-17T04:24:05.014Z,2.30
2018-07-17T04:25:05.032Z,2.10
2018-07-17T04:26:05.047Z,2.60
2018-07-17T04:27:05.058Z,2.30
2018-07-17T04:28:05.077Z,2.10
2018-07-17T04:29:05.096Z,2.40
2018-07-17T04:30:05.115Z,2.50
2018-07-17T04:31:05.130Z,2.30
2018-07-17T04:32:05.141Z,2.20
2018-07-17T04:33:05.161Z,2.20
2018-07-17T04:34:05.174Z,2.20
2018-07-17T04:35:05.188Z,2.20
2018-07-17T04:36:05.206Z,2.30
2018-07-17T04:37:05.222Z,2.10
2018-07-17T04:38:05.241Z,2.10
2018-07-17T04:39:05.253Z,2.20
2018-07-17T04:40:05.332Z,2.30
2018-07-17T04:41:05.290Z,2.40
2018-07-17T04:42:05.304Z,2.00
2018-07-17T04:43:05.318Z,2.10
2018-07-17T04:44:05.354Z,2.30
2018-07-17T04:45:05.357Z,2.40
2018-07-17T04:46:05.374Z,2.40
2018-07-17T04:47:05.389Z,2.20
2018-07-17T04:48:05.399Z,2.30
2018-07-17T04:49:05.422Z,2.20
2018-07-17T04:50:05.438Z,2.30
2018-07-17T04:51:05.450Z,2.10
2018-07-17T04:52:05.465Z,2.30
2018-07-17T04:53:05.484Z,2.30
2018-07-17T04:54:05.499Z,2.30
2018-07-17T04:55:05.519Z,2.30
2018-07-17T04:56:05.533Z,2.20
2018-07-17T04:57:05.548Z,2.20
2018-07-17T04:58:05.621Z,2.40
2018-07-17T04:59:05.579Z,2.30
2018-07-17T05:00:05.602Z,2.20
2018-07-17T05:01:05.616Z,2.40
2018-07-17T05:02:05.665Z,2.20
2018-07-17T05:03:05.644Z,2.50
2018-07-17T05:04:05.666Z,2.40
2018-07-17T05:05:05.715Z,2.50
2018-07-17T05:06:05.700Z,2.40
2018-07-17T05:07:05.717Z,2.30
2018-07-17T05:08:05.729Z,2.30
2018-07-17T05:09:05.748Z,2.50
2018-07-17T05:10:05.759Z,2.50
2018-07-17T05:11:05.774Z,2.50
2018-07-17T05:12:05.790Z,2.40
2018-07-17T05:13:05.914Z,2.60
2018-07-17T05:14:05.826Z,2.50
2018-07-17T05:15:05.843Z,2.50
2018-07-17T05:16:05.909Z,2.60
2018-07-17T05:17:05.872Z,2.70
2018-07-17T05:18:05.890Z,2.60
2018-07-17T05:19:05.909Z,2.80
2018-07-17T05:20:05.955Z,2.40
2018-07-17T05:21:05.944Z,2.60
2018-07-17T05:22:05.952Z,2.50
2018-07-17T05:23:05.971Z,2.80
2018-07-17T05:24:05.987Z,2.60
2018-07-17T05:25:06.001Z,2.80
2018-07-17T05:26:06.032Z,2.70
2018-07-17T05:27:06.127Z,2.70
2018-07-17T05:28:06.104Z,2.70
2018-07-17T05:29:06.211Z,2.70
2018-07-17T05:30:06.089Z,2.70
2018-07-17T05:31:06.102Z,2.60
2018-07-17T05:32:06.121Z,2.60
2018-07-17T05:33:06.143Z,2.60
2018-07-17T05:34:06.156Z,2.60
2018-07-17T05:35:06.212Z,3.00
2018-07-17T05:36:06.183Z,2.70
2018-07-17T05:37:06.201Z,2.80
2018-07-17T05:38:06.215Z,2.80
2018-07-17T05:39:06.270Z,2.90
2018-07-17T05:40:06.248Z,2.80
2018-07-17T05:41:06.268Z,2.70
2018-07-17T05:42:06.278Z,3.10
2018-07-17T05:43:06.298Z,2.90
2018-07-17T05:44:06.315Z,3.10
2018-07-17T05:45:06.356Z,2.90
2018-07-17T05:46:06.395Z,2.90
2018-07-17T05:47:06.361Z,3.00
2018-07-17T05:48:06.382Z,3.00
2018-07-17T05:49:06.398Z,3.00
2018-07-17T05:50:06.411Z,3.00
2018-07-17T05:51:06.451Z,2.90
2018-07-17T05:52:06.447Z,3.00
2018-07-17T05:53:06.464Z,3.20
2018-07-17T05:54:06.482Z,3.00
2018-07-17T05:55:06.490Z,3.20
2018-07-17T05:56:06.512Z,3.10
2018-07-17T05:57:06.618Z,3.20
2018-07-17T05:58:06.545Z,3.40
2018-07-17T05:59:06.563Z,3.10
2018-07-17T06:00:06.580Z,3.20
2018-07-17T06:01:06.597Z,3.30
2018-07-17T06:02:06.604Z,3.50
2018-07-17T06:03:06.649Z,3.10
2018-07-17T06:04:06.642Z,3.20
2018-07-17T06:05:06.660Z,3.50
2018-07-17T06:06:06.670Z,3.40
2018-07-17T06:07:06.687Z,3.20
2018-07-17T06:08:06.701Z,3.20
2018-07-17T06:09:06.816Z,3.30
2018-07-17T06:10:06.807Z,3.20
2018-07-17T06:11:06.756Z,3.10
2018-07-17T06:12:06.768Z,3.20
2018-07-17T06:13:06.790Z,3.20
2018-07-17T06:14:06.801Z,3.50
2018-07-17T06:15:06.818Z,3.20
2018-07-17T06:16:06.885Z,3.40
2018-07-17T06:17:06.857Z,3.20
2018-07-17T06:18:06.868Z,3.40
2018-07-17T06:19:06.904Z,3.50
2018-07-17T06:20:06.905Z,3.20
2018-07-17T06:21:07.003Z,3.40
2018-07-17T06:22:06.949Z,3.20
2018-07-17T06:23:06.953Z,3.10
2018-07-17T06:24:06.967Z,3.40
2018-07-17T06:25:07.059Z,3.40
2018-07-17T06:26:07.032Z,3.10
2018-07-17T06:27:07.017Z,3.30
2018-07-17T06:28:07.033Z,3.10
2018-07-17T06:29:07.049Z,3.30
2018-07-17T06:30:07.073Z,3.30
2018-07-17T06:31:07.086Z,3.40
2018-07-17T06:32:07.106Z,3.20
2018-07-17T06:33:07.159Z,3.10
2018-07-17T06:34:07.137Z,3.10
2018-07-17T06:35:07.147Z,3.40
2018-07-17T06:36:07.167Z,3.00
2018-07-17T06:37:07.184Z,2.90
2018-07-17T06:38:07.200Z,2.70
2018-07-17T06:39:07.219Z,2.90
2018-07-17T06:40:07.284Z,3.00
2018-07-17T06:41:07.253Z,2.90
2018-07-17T06:42:07.266Z,3.00
2018-07-17T06:43:07.283Z,3.10
2018-07-17T06:44:07.305Z,2.90
2018-07-17T06:45:07.312Z,3.00
2018-07-17T06:46:07.379Z,2.90
2018-07-17T06:47:07.349Z,2.70
2018-07-17T06:48:07.365Z,3.00
2018-07-17T06:49:07.383Z,2.80
2018-07-17T06:50:07.465Z,3.00
2018-07-17T06:51:07.413Z,2.70
2018-07-17T06:52:07.433Z,2.60
2018-07-17T06:53:07.449Z,2.90
2018-07-17T06:54:07.465Z,2.80
2018-07-17T06:55:07.482Z,2.90
2018-07-17T06:56:07.501Z,2.80
2018-07-17T06:57:07.511Z,2.90
2018-07-17T06:58:07.530Z,2.70
2018-07-17T06:59:07.546Z,3.00
2018-07-17T07:00:07.568Z,2.60
2018-07-17T07:01:07.583Z,2.90
2018-07-17T07:02:07.597Z,2.90
2018-07-17T07:03:07.613Z,2.70
2018-07-17T07:04:07.634Z,3.20
2018-07-17T07:05:07.694Z,3.10
2018-07-17T07:06:07.666Z,3.00
2018-07-17T07:07:07.685Z,2.70
2018-07-17T07:08:07.698Z,3.00
2018-07-17T07:09:07.717Z,2.90
2018-07-17T07:10:07.793Z,2.70
2018-07-17T07:11:07.829Z,2.80
2018-07-17T07:12:07.767Z,2.80
2018-07-17T07:13:07.793Z,2.90
2018-07-17T07:14:07.872Z,2.80
2018-07-17T07:15:07.825Z,2.90
2018-07-17T07:16:07.889Z,3.00
2018-07-17T07:17:07.864Z,2.80
2018-07-17T07:18:07.877Z,2.70
2018-07-17T07:19:07.894Z,2.60
2018-07-17T07:20:07.972Z,2.60
2018-07-17T07:21:07.925Z,2.60
2018-07-17T07:22:07.951Z,2.60
2018-07-17T07:23:07.965Z,2.90
2018-07-17T07:24:07.988Z,2.40
2018-07-17T07:25:08.003Z,2.50
2018-07-17T07:26:08.032Z,2.60
2018-07-17T07:27:08.036Z,2.40
2018-07-17T07:28:08.105Z,2.40
2018-07-17T07:29:08.073Z,2.60
2018-07-17T07:30:08.093Z,2.50
2018-07-17T07:31:08.181Z,2.80
2018-07-17T07:32:08.124Z,2.60
2018-07-17T07:33:08.151Z,2.70
2018-07-17T07:34:08.213Z,2.60
2018-07-17T07:35:08.181Z,2.50
2018-07-17T07:36:08.199Z,2.40
2018-07-17T07:37:08.221Z,2.40
2018-07-17T07:38:08.286Z,2.50
2018-07-17T07:39:08.256Z,2.40
2018-07-17T07:40:08.269Z,2.20
2018-07-17T07:41:08.293Z,2.60
2018-07-17T07:42:08.316Z,2.70
2018-07-17T07:43:08.324Z,2.30
2018-07-17T07:44:08.400Z,2.40
2018-07-17T07:45:08.361Z,2.80
2018-07-17T07:46:08.430Z,2.20
2018-07-17T07:47:08.404Z,2.40
2018-07-17T07:48:08.416Z,2.40
2018-07-17T07:49:08.444Z,2.30
2018-07-17T07:50:08.517Z,2.30
2018-07-17T07:51:08.472Z,2.60
2018-07-17T07:52:08.545Z,2.40
2018-07-17T07:53:08.513Z,2.70
2018-07-17T07:54:08.530Z,3.00
2018-07-17T07:55:08.548Z,2.70
2018-07-17T07:56:08.659Z,2.80
2018-07-17T07:57:08.587Z,2.60
2018-07-17T07:58:08.658Z,2.60
2018-07-17T07:59:08.626Z,2.30
2018-07-17T08:00:08.651Z,2.70
2018-07-17T08:01:08.663Z,2.50
2018-07-17T08:02:08.684Z,2.90
2018-07-17T08:03:08.702Z,2.30
2018-07-17T08:04:08.773Z,2.60
2018-07-17T08:05:08.741Z,2.60
2018-07-17T08:06:08.765Z,2.30
2018-07-17T08:07:08.836Z,2.70
2018-07-17T08:08:08.804Z,3.10
2018-07-17T08:09:08.824Z,2.60
2018-07-17T08:10:08.897Z,2.60
2018-07-17T08:11:08.858Z,2.90
2018-07-17T08:12:08.941Z,2.60
2018-07-17T08:13:08.946Z,2.50
2018-07-17T08:14:08.923Z,2.80
2018-07-17T08:15:08.939Z,2.70
2018-07-17T08:16:09.014Z,2.60
2018-07-17T08:17:08.977Z,3.30
2018-07-17T08:18:08.998Z,2.80
2018-07-17T08:19:09.030Z,2.90
2018-07-17T08:20:09.042Z,2.80
2018-07-17T08:21:09.061Z,2.70
2018-07-17T08:22:09.127Z,4.50
2018-07-17T08:23:09.103Z,3.10
2018-07-17T08:24:09.149Z,2.70
2018-07-17T08:25:09.136Z,2.90
2018-07-17T08:26:09.163Z,2.70
2018-07-17T08:27:09.177Z,2.80
2018-07-17T08:28:09.198Z,2.90
2018-07-17T08:29:09.217Z,2.70
2018-07-17T08:30:09.246Z,2.80
2018-07-17T08:31:09.267Z,2.70
2018-07-17T08:32:09.283Z,2.90
2018-07-17T08:33:09.304Z,2.90
2018-07-17T08:34:09.374Z,3.00
2018-07-17T08:35:09.343Z,2.80
2018-07-17T08:36:09.359Z,2.90
2018-07-17T08:37:09.447Z,2.70
2018-07-17T08:38:09.406Z,3.20
2018-07-17T08:39:09.420Z,3.50
2018-07-17T08:40:09.497Z,2.80
2018-07-17T08:41:09.470Z,2.70
2018-07-17T08:42:09.485Z,2.60
2018-07-17T08:43:09.566Z,2.80
2018-07-17T08:44:09.526Z,2.70
2018-07-17T08:45:09.551Z,2.60
2018-07-17T08:46:09.586Z,2.60
2018-07-17T08:47:09.583Z,2.90
2018-07-17T08:48:09.609Z,2.70
2018-07-17T08:49:09.703Z,2.90
2018-07-17T08:50:09.650Z,5.80
2018-07-17T08:51:09.666Z,2.70
2018-07-17T08:52:09.745Z,3.00
2018-07-17T08:53:09.706Z,3.00
2018-07-17T08:54:09.734Z,6.30
2018-07-17T08:55:09.748Z,3.00
2018-07-17T08:56:09.773Z,3.00
2018-07-17T08:57:09.789Z,3.00
2018-07-17T08:58:09.813Z,2.70
2018-07-17T08:59:09.837Z,2.70
2018-07-17T09:00:09.851Z,2.50
2018-07-17T09:01:09.872Z,2.60
2018-07-17T09:02:09.897Z,2.60
2018-07-17T09:03:09.918Z,2.70
2018-07-17T09:04:09.986Z,2.50
2018-07-17T09:05:09.956Z,2.60
2018-07-17T09:06:09.977Z,3.70
2018-07-17T09:07:10.001Z,3.00
2018-07-17T09:08:10.094Z,2.60
2018-07-17T09:09:10.039Z,2.80
2018-07-17T09:10:10.066Z,2.80
2018-07-17T09:11:10.081Z,2.70
2018-07-17T09:12:10.114Z,2.50
2018-07-17T09:13:10.153Z,2.70
2018-07-17T09:14:10.166Z,2.90
2018-07-17T09:15:10.220Z,2.80
2018-07-17T09:16:10.189Z,3.30
2018-07-17T09:17:10.212Z,2.70
2018-07-17T09:18:10.233Z,2.60
2018-07-17T09:19:10.249Z,3.00
2018-07-17T09:20:10.287Z,2.80
2018-07-17T09:21:10.293Z,2.70
2018-07-17T09:22:10.316Z,2.70
2018-07-17T09:23:10.335Z,4.90
2018-07-17T09:24:10.357Z,2.90
2018-07-17T09:25:10.378Z,2.80
2018-07-17T09:26:10.403Z,4.30
2018-07-17T09:27:10.422Z,3.00
2018-07-17T09:28:10.527Z,3.30
2018-07-17T09:29:10.472Z,2.80
2018-07-17T09:30:10.487Z,3.30
2018-07-17T09:31:10.562Z,3.70
2018-07-17T09:32:10.538Z,3.60
2018-07-17T09:33:10.551Z,3.50
2018-07-17T09:34:10.633Z,3.10
2018-07-17T09:35:10.595Z,2.80
2018-07-17T09:36:10.626Z,3.00
2018-07-17T09:37:10.645Z,2.80
2018-07-17T09:38:10.680Z,3.00
2018-07-17T09:39:10.685Z,3.60
2018-07-17T09:40:10.710Z,3.00
2018-07-17T09:41:10.732Z,3.40
2018-07-17T09:42:10.754Z,3.40
2018-07-17T09:43:10.770Z,3.00
2018-07-17T09:44:10.874Z,3.10
2018-07-17T09:45:10.865Z,2.70
2018-07-17T09:46:10.839Z,22.80
2018-07-17T09:47:10.860Z,3.00
2018-07-17T09:48:10.887Z,2.60
2018-07-17T09:49:10.908Z,3.60
2018-07-17T09:50:10.932Z,4.40
2018-07-17T09:51:11.071Z,3.20
2018-07-17T09:52:10.968Z,3.10
2018-07-17T09:53:10.993Z,3.00
2018-07-17T09:54:11.058Z,2.70
2018-07-17T09:55:11.042Z,2.70
2018-07-17T09:56:11.063Z,3.20
2018-07-17T09:57:11.142Z,2.90
2018-07-17T09:58:11.104Z,2.90
2018-07-17T09:59:11.129Z,2.90
2018-07-17T10:00:11.162Z,2.90
2018-07-17T10:01:11.174Z,2.90
2018-07-17T10:02:11.198Z,3.00
2018-07-17T10:03:11.341Z,6.50
2018-07-17T10:04:11.242Z,3.20
2018-07-17T10:05:11.264Z,2.90
2018-07-17T10:06:11.325Z,2.90
2018-07-17T10:07:11.305Z,2.70
2018-07-17T10:08:11.327Z,2.90
2018-07-17T10:09:11.400Z,3.30
2018-07-17T10:10:11.378Z,3.30
2018-07-17T10:11:11.398Z,3.40
2018-07-17T10:12:11.419Z,3.10
2018-07-17T10:13:11.445Z,3.00
2018-07-17T10:14:11.469Z,2.90
2018-07-17T10:15:11.492Z,3.10
2018-07-17T10:16:11.514Z,2.80
2018-07-17T10:17:11.532Z,3.10
2018-07-17T10:18:11.570Z,2.70
2018-07-17T10:19:11.577Z,2.90
2018-07-17T10:20:11.673Z,3.00
2018-07-17T10:21:11.712Z,3.50
2018-07-17T10:22:11.651Z,3.30
2018-07-17T10:23:11.670Z,3.60
2018-07-17T10:24:11.700Z,2.90
2018-07-17T10:25:11.722Z,3.10
2018-07-17T10:26:11.763Z,2.90
2018-07-17T10:27:11.818Z,3.10
2018-07-17T10:28:11.786Z,3.10
2018-07-17T10:29:11.815Z,3.00
2018-07-17T10:30:11.834Z,3.00
2018-07-17T10:31:11.856Z,3.40
2018-07-17T10:32:11.971Z,3.40
2018-07-17T10:33:11.905Z,3.50
2018-07-17T10:34:11.931Z,3.30
2018-07-17T10:35:11.955Z,3.50
2018-07-17T10:36:11.979Z,3.70
2018-07-17T10:37:12.002Z,3.70
2018-07-17T10:38:12.024Z,3.70
2018-07-17T10:39:12.103Z,3.60
2018-07-17T10:40:12.134Z,5.80
2018-07-17T10:41:12.090Z,3.40
2018-07-17T10:42:12.121Z,3.50
2018-07-17T10:43:12.136Z,3.50
2018-07-17T10:44:12.165Z,3.30
2018-07-17T10:45:12.241Z,3.30
2018-07-17T10:46:12.258Z,3.20
2018-07-17T10:47:12.237Z,3.10
2018-07-17T10:48:12.256Z,3.50
2018-07-17T10:49:12.283Z,3.40
2018-07-17T10:50:12.306Z,3.10
2018-07-17T10:51:12.326Z,3.20
2018-07-17T10:52:12.362Z,3.10
2018-07-17T10:53:12.373Z,3.10
2018-07-17T10:54:12.401Z,3.40
2018-07-17T10:55:12.427Z,4.30
2018-07-17T10:56:12.444Z,3.40
2018-07-17T10:57:12.525Z,3.00
2018-07-17T10:58:12.497Z,3.70
2018-07-17T10:59:12.520Z,3.60
2018-07-17T11:00:12.540Z,3.60
2018-07-17T11:01:12.564Z,4.00
2018-07-17T11:02:12.588Z,3.70
2018-07-17T11:03:12.667Z,3.90
2018-07-17T11:04:12.638Z,3.60
2018-07-17T11:05:12.662Z,3.60
2018-07-17T11:06:12.686Z,3.40
2018-07-17T11:07:12.705Z,4.00
2018-07-17T11:09:12.805Z,3.70
2018-07-17T11:10:12.781Z,3.70
2018-07-17T11:11:12.805Z,3.60
2018-07-17T11:12:12.825Z,3.90
2018-07-17T11:13:12.860Z,3.90
2018-07-17T11:14:12.877Z,3.70
2018-07-17T11:15:12.945Z,3.90
2018-07-17T11:16:12.922Z,3.70
2018-07-17T11:17:12.970Z,4.20
2018-07-17T11:18:12.972Z,3.60
2018-07-17T11:19:12.992Z,3.90
2018-07-17T11:20:13.020Z,3.80
2018-07-17T11:21:13.088Z,3.70
2018-07-17T11:22:13.065Z,3.60
2018-07-17T11:23:13.089Z,4.00
2018-07-17T11:24:13.113Z,3.70
2018-07-17T11:25:13.137Z,3.80
2018-07-17T11:26:13.163Z,3.90
2018-07-17T11:27:13.234Z,4.20
2018-07-17T11:28:13.209Z,4.00
2018-07-17T11:29:13.229Z,4.00
2018-07-17T11:30:13.259Z,3.90
2018-07-17T11:31:13.276Z,4.20
2018-07-17T11:32:13.305Z,4.10
2018-07-17T11:33:13.380Z,4.50
2018-07-17T11:34:13.357Z,4.40
2018-07-17T11:35:13.373Z,3.90
2018-07-17T11:36:13.410Z,4.70
2018-07-17T11:37:13.426Z,3.90
2018-07-17T11:38:13.445Z,4.10
2018-07-17T11:39:13.524Z,3.80
2018-07-17T11:40:13.493Z,4.00
2018-07-17T11:41:13.523Z,4.20
2018-07-17T11:42:13.542Z,4.00
2018-07-17T11:43:13.565Z,4.20
2018-07-17T11:44:13.590Z,4.30
2018-07-17T11:45:13.670Z,3.90
2018-07-17T11:46:13.644Z,4.40
2018-07-17T11:47:13.662Z,4.20
2018-07-17T11:48:13.745Z,4.00
2018-07-17T11:49:13.714Z,4.80
2018-07-17T11:50:13.740Z,4.00
2018-07-17T11:51:13.809Z,4.00
2018-07-17T11:52:13.787Z,12.30
2018-07-17T11:53:13.814Z,4.10
2018-07-17T11:54:13.832Z,4.00
2018-07-17T11:55:13.871Z,4.50
2018-07-17T11:56:13.885Z,4.10
2018-07-17T11:57:13.962Z,3.80
2018-07-17T11:58:13.932Z,4.20
2018-07-17T11:59:14.159Z,4.20
2018-07-17T12:00:13.983Z,3.90
2018-07-17T12:01:14.003Z,5.30
2018-07-17T12:02:14.035Z,3.90
2018-07-17T12:03:14.053Z,4.20
2018-07-17T12:04:14.083Z,4.20
2018-07-17T12:05:14.101Z,4.50
2018-07-17T12:06:14.127Z,4.40
2018-07-17T12:07:14.150Z,4.20
2018-07-17T12:08:14.177Z,4.40
2018-07-17T12:09:14.265Z,4.60
2018-07-17T12:10:14.232Z,4.30
2018-07-17T12:11:14.253Z,4.20
2018-07-17T12:12:14.274Z,4.10
2018-07-17T12:13:14.319Z,4.40
2018-07-17T12:14:14.325Z,4.40
2018-07-17T12:15:14.412Z,4.50
2018-07-17T12:16:14.374Z,4.50
2018-07-17T12:17:14.399Z,7.70
2018-07-17T12:18:14.425Z,4.50
2018-07-17T12:19:14.468Z,4.80
2018-07-17T12:20:14.566Z,4.90
2018-07-17T12:21:14.550Z,4.80
2018-07-17T12:22:14.530Z,4.90
2018-07-17T12:23:14.552Z,5.40
2018-07-17T12:24:14.574Z,5.20
2018-07-17T12:25:14.601Z,5.30
2018-07-17T12:26:14.626Z,5.40
2018-07-17T12:27:14.702Z,5.70
2018-07-17T12:28:14.680Z,5.40
2018-07-17T12:29:14.701Z,5.30
2018-07-17T12:30:14.730Z,5.30
2018-07-17T12:31:14.757Z,5.20
2018-07-17T12:32:14.867Z,4.80
2018-07-17T12:33:15.009Z,5.50
2018-07-17T12:34:14.833Z,5.40
2018-07-17T12:35:14.857Z,5.50
2018-07-17T12:36:14.884Z,6.20
2018-07-17T12:37:14.904Z,5.80
2018-07-17T12:38:14.934Z,5.70
2018-07-17T12:39:15.007Z,6.30
2018-07-17T12:40:14.984Z,5.70
2018-07-17T12:41:15.013Z,7.80
2018-07-17T12:42:15.034Z,14.80
2018-07-17T12:43:15.061Z,6.50
2018-07-17T12:44:15.261Z,6.10
2018-07-17T12:45:15.157Z,6.00
2018-07-17T12:46:15.138Z,6.20
2018-07-17T12:47:15.159Z,5.70
2018-07-17T12:48:15.181Z,6.10
2018-07-17T12:49:15.211Z,6.50
2018-07-17T12:50:15.291Z,6.70
2018-07-17T12:51:15.311Z,6.60
2018-07-17T12:52:15.283Z,6.50
2018-07-17T12:53:15.307Z,6.20
2018-07-17T12:54:15.332Z,9.50
2018-07-17T12:55:15.357Z,6.60
2018-07-17T12:56:15.518Z,6.20
2018-07-17T12:57:15.464Z,6.20
2018-07-17T12:58:15.434Z,6.40
2018-07-17T12:59:15.464Z,6.80
2018-07-17T13:00:15.583Z,6.80
2018-07-17T13:01:15.522Z,7.10
2018-07-17T13:02:15.552Z,7.10
2018-07-17T13:03:15.610Z,6.80
2018-07-17T13:04:15.588Z,6.30
2018-07-17T13:05:15.616Z,6.60
2018-07-17T13:06:15.639Z,6.60
2018-07-17T13:07:15.672Z,6.90
2018-07-17T13:08:15.702Z,6.40
2018-07-17T13:09:15.821Z,6.50
2018-07-17T13:10:15.740Z,6.80
2018-07-17T13:11:15.760Z,6.60
2018-07-17T13:12:15.789Z,7.00
2018-07-17T13:13:15.915Z,7.40
2018-07-17T13:14:15.870Z,8.20
2018-07-17T13:15:15.917Z,8.30
2018-07-17T13:16:15.886Z,8.80
2018-07-17T13:17:15.918Z,8.50
2018-07-17T13:18:15.943Z,8.10
2018-07-17T13:19:15.967Z,8.40